sensor_id;sensor_type;location;lat;lon;timestamp;temperature;humidity
21176;DHT22;10746;50.178;8.186;2023-03-04T00:02:18;-2.00;99.90
21176;DHT22;10746;50.178;8.186;2023-03-04T00:04:45;-2.00;99.90
21176;DHT22;10746;50.178;8.186;2023-03-04T00:07:13;-2.00;99.90
21176;DHT22;10746;50.178;8.186;2023-03-04T00:09:41;-2.00;99.90
21176;DHT22;10746;50.178;8.186;2023-03-04T00:12:08;-2.10;99.90
21176;DHT22;10746;50.178;8.186;2023-03-04T00:14:35;-2.10;99.90
21176;DHT22;10746;50.178;8.186;2023-03-04T00:17:02;-2.10;99.90
21176;DHT22;10746;50.178;8.186;2023-03-04T00:19:29;-2.10;99.90
21176;DHT22;10746;50.178;8.186;2023-03-04T00:21:55;-2.20;99.90
21176;DHT22;10746;50.178;8.186;2023-03-04T00:24:24;-2.20;99.90
21176;DHT22;10746;50.178;8.186;2023-03-04T00:26:50;-2.20;99.90
21176;DHT22;10746;50.178;8.186;2023-03-04T00:29:17;-2.30;99.90
21176;DHT22;10746;50.178;8.186;2023-03-04T00:31:44;-2.30;99.90
21176;DHT22;10746;50.178;8.186;2023-03-04T00:34:11;-2.30;99.90
21176;DHT22;10746;50.178;8.186;2023-03-04T00:36:37;-2.30;99.90
21176;DHT22;10746;50.178;8.186;2023-03-04T00:39:04;-2.30;99.90
21176;DHT22;10746;50.178;8.186;2023-03-04T00:41:32;-2.30;99.90
21176;DHT22;10746;50.178;8.186;2023-03-04T00:43:59;-2.30;99.90
21176;DHT22;10746;50.178;8.186;2023-03-04T00:46:26;-2.30;99.90
21176;DHT22;10746;50.178;8.186;2023-03-04T00:48:52;-2.30;99.90
21176;DHT22;10746;50.178;8.186;2023-03-04T00:51:19;-2.30;99.90
21176;DHT22;10746;50.178;8.186;2023-03-04T00:53:46;-2.20;99.90
21176;DHT22;10746;50.178;8.186;2023-03-04T00:56:13;-2.20;99.90
21176;DHT22;10746;50.178;8.186;2023-03-04T00:58:41;-2.10;99.90
21176;DHT22;10746;50.178;8.186;2023-03-04T01:01:08;-2.00;99.90
21176;DHT22;10746;50.178;8.186;2023-03-04T01:03:34;-2.00;99.90
21176;DHT22;10746;50.178;8.186;2023-03-04T01:06:01;-1.90;99.90
21176;DHT22;10746;50.178;8.186;2023-03-04T01:08:28;-1.80;99.90
21176;DHT22;10746;50.178;8.186;2023-03-04T01:10:55;-1.80;99.90
21176;DHT22;10746;50.178;8.186;2023-03-04T01:13:21;-1.80;99.90
21176;DHT22;10746;50.178;8.186;2023-03-04T01:15:50;-1.70;99.90
21176;DHT22;10746;50.178;8.186;2023-03-04T01:18:16;-1.70;99.90
21176;DHT22;10746;50.178;8.186;2023-03-04T01:20:43;-1.60;99.90
21176;DHT22;10746;50.178;8.186;2023-03-04T01:23:10;-1.60;99.90
21176;DHT22;10746;50.178;8.186;2023-03-04T01:25:36;-1.50;99.90
21176;DHT22;10746;50.178;8.186;2023-03-04T01:28:03;-1.40;99.90
21176;DHT22;10746;50.178;8.186;2023-03-04T01:30:30;-1.40;99.90
21176;DHT22;10746;50.178;8.186;2023-03-04T01:32:58;-1.30;99.90
21176;DHT22;10746;50.178;8.186;2023-03-04T01:35:25;-1.40;99.90
21176;DHT22;10746;50.178;8.186;2023-03-04T01:37:52;-1.30;99.90
21176;DHT22;10746;50.178;8.186;2023-03-04T01:40:19;-1.40;99.90
21176;DHT22;10746;50.178;8.186;2023-03-04T01:42:46;-1.60;99.90
21176;DHT22;10746;50.178;8.186;2023-03-04T01:45:14;-1.60;99.90
21176;DHT22;10746;50.178;8.186;2023-03-04T01:47:43;-1.60;99.90
21176;DHT22;10746;50.178;8.186;2023-03-04T01:50:18;-1.60;99.90
21176;DHT22;10746;50.178;8.186;2023-03-04T01:52:45;-1.50;99.90
21176;DHT22;10746;50.178;8.186;2023-03-04T01:55:15;-1.40;99.90
21176;DHT22;10746;50.178;8.186;2023-03-04T01:57:42;-1.40;99.90
21176;DHT22;10746;50.178;8.186;2023-03-04T02:00:22;-1.20;99.90
21176;DHT22;10746;50.178;8.186;2023-03-04T02:02:52;-1.10;99.90
21176;DHT22;10746;50.178;8.186;2023-03-04T02:05:21;-1.00;99.90
21176;DHT22;10746;50.178;8.186;2023-03-04T02:07:48;-1.00;99.90
21176;DHT22;10746;50.178;8.186;2023-03-04T02:10:15;-0.90;99.90
21176;DHT22;10746;50.178;8.186;2023-03-04T02:12:44;-0.80;99.90
21176;DHT22;10746;50.178;8.186;2023-03-04T02:15:11;-0.80;99.90
21176;DHT22;10746;50.178;8.186;2023-03-04T02:17:38;-0.80;99.90
21176;DHT22;10746;50.178;8.186;2023-03-04T02:20:14;-0.70;99.90
21176;DHT22;10746;50.178;8.186;2023-03-04T02:22:53;-0.60;99.90
21176;DHT22;10746;50.178;8.186;2023-03-04T02:25:28;-0.60;99.90
21176;DHT22;10746;50.178;8.186;2023-03-04T02:27:57;-0.50;99.90
21176;DHT22;10746;50.178;8.186;2023-03-04T02:30:24;-0.50;99.90
21176;DHT22;10746;50.178;8.186;2023-03-04T02:32:51;-0.40;99.90
21176;DHT22;10746;50.178;8.186;2023-03-04T02:35:19;-0.40;99.90
21176;DHT22;10746;50.178;8.186;2023-03-04T02:37:46;-0.50;99.90
21176;DHT22;10746;50.178;8.186;2023-03-04T02:40:15;-0.40;99.90
21176;DHT22;10746;50.178;8.186;2023-03-04T02:42:44;-0.40;99.90
21176;DHT22;10746;50.178;8.186;2023-03-04T02:45:35;-0.40;99.90
21176;DHT22;10746;50.178;8.186;2023-03-04T02:48:03;-0.30;99.90
21176;DHT22;10746;50.178;8.186;2023-03-04T02:50:34;-0.30;99.90
21176;DHT22;10746;50.178;8.186;2023-03-04T02:53:01;-0.30;99.90
21176;DHT22;10746;50.178;8.186;2023-03-04T02:55:28;-0.20;99.90
21176;DHT22;10746;50.178;8.186;2023-03-04T02:57:55;-0.20;99.90
21176;DHT22;10746;50.178;8.186;2023-03-04T03:00:21;-0.20;99.90
21176;DHT22;10746;50.178;8.186;2023-03-04T03:02:50;-0.10;99.90
21176;DHT22;10746;50.178;8.186;2023-03-04T03:05:17;-0.10;99.90
21176;DHT22;10746;50.178;8.186;2023-03-04T03:07:44;-0.10;99.90
21176;DHT22;10746;50.178;8.186;2023-03-04T03:10:11;0.00;99.90
21176;DHT22;10746;50.178;8.186;2023-03-04T03:12:38;0.00;99.90
21176;DHT22;10746;50.178;8.186;2023-03-04T03:15:06;0.00;99.90
21176;DHT22;10746;50.178;8.186;2023-03-04T03:17:33;0.00;99.90
21176;DHT22;10746;50.178;8.186;2023-03-04T03:20:01;0.00;99.90
21176;DHT22;10746;50.178;8.186;2023-03-04T03:22:28;0.00;99.90
21176;DHT22;10746;50.178;8.186;2023-03-04T03:24:55;0.00;99.90
21176;DHT22;10746;50.178;8.186;2023-03-04T03:27:21;0.00;99.90
21176;DHT22;10746;50.178;8.186;2023-03-04T03:29:48;0.00;99.90
21176;DHT22;10746;50.178;8.186;2023-03-04T03:32:15;0.00;99.90
21176;DHT22;10746;50.178;8.186;2023-03-04T03:34:41;0.00;99.90
21176;DHT22;10746;50.178;8.186;2023-03-04T03:37:10;0.10;99.90
21176;DHT22;10746;50.178;8.186;2023-03-04T03:39:36;0.10;99.90
21176;DHT22;10746;50.178;8.186;2023-03-04T03:42:03;0.10;99.90
21176;DHT22;10746;50.178;8.186;2023-03-04T03:44:30;0.10;99.90
21176;DHT22;10746;50.178;8.186;2023-03-04T03:46:57;0.10;99.90
21176;DHT22;10746;50.178;8.186;2023-03-04T03:49:23;0.10;99.90
21176;DHT22;10746;50.178;8.186;2023-03-04T03:51:50;0.10;99.90
21176;DHT22;10746;50.178;8.186;2023-03-04T03:54:18;0.00;99.90
21176;DHT22;10746;50.178;8.186;2023-03-04T03:56:45;0.10;99.90
21176;DHT22;10746;50.178;8.186;2023-03-04T03:59:12;0.10;99.90
21176;DHT22;10746;50.178;8.186;2023-03-04T04:01:38;0.10;99.90
21176;DHT22;10746;50.178;8.186;2023-03-04T04:04:05;0.10;99.90
21176;DHT22;10746;50.178;8.186;2023-03-04T04:06:32;0.10;99.90
21176;DHT22;10746;50.178;8.186;2023-03-04T04:08:58;0.10;99.90
21176;DHT22;10746;50.178;8.186;2023-03-04T04:11:27;0.10;99.90
21176;DHT22;10746;50.178;8.186;2023-03-04T04:13:53;0.10;99.90
21176;DHT22;10746;50.178;8.186;2023-03-04T04:16:20;0.10;99.90
21176;DHT22;10746;50.178;8.186;2023-03-04T04:18:47;0.20;99.90
21176;DHT22;10746;50.178;8.186;2023-03-04T04:21:13;0.20;99.90
21176;DHT22;10746;50.178;8.186;2023-03-04T04:23:41;0.20;99.90
21176;DHT22;10746;50.178;8.186;2023-03-04T04:26:08;0.20;99.90
21176;DHT22;10746;50.178;8.186;2023-03-04T04:28:36;0.20;99.90
21176;DHT22;10746;50.178;8.186;2023-03-04T04:31:06;0.20;99.90
21176;DHT22;10746;50.178;8.186;2023-03-04T04:33:33;0.20;99.90
21176;DHT22;10746;50.178;8.186;2023-03-04T04:35:59;0.20;99.90
21176;DHT22;10746;50.178;8.186;2023-03-04T04:38:28;0.20;99.90
21176;DHT22;10746;50.178;8.186;2023-03-04T04:40:55;0.20;99.90
21176;DHT22;10746;50.178;8.186;2023-03-04T04:43:23;0.20;99.90
21176;DHT22;10746;50.178;8.186;2023-03-04T04:45:51;0.20;99.90
21176;DHT22;10746;50.178;8.186;2023-03-04T04:48:18;0.20;99.90
21176;DHT22;10746;50.178;8.186;2023-03-04T04:50:44;0.20;99.90
21176;DHT22;10746;50.178;8.186;2023-03-04T04:53:12;0.20;99.90
21176;DHT22;10746;50.178;8.186;2023-03-04T04:55:39;0.30;99.90
21176;DHT22;10746;50.178;8.186;2023-03-04T04:58:06;0.20;99.90
21176;DHT22;10746;50.178;8.186;2023-03-04T05:00:33;0.20;99.90
21176;DHT22;10746;50.178;8.186;2023-03-04T05:03:01;0.30;99.90
21176;DHT22;10746;50.178;8.186;2023-03-04T05:05:28;0.30;99.90
21176;DHT22;10746;50.178;8.186;2023-03-04T05:07:54;0.30;99.90
21176;DHT22;10746;50.178;8.186;2023-03-04T05:10:21;0.30;99.90
21176;DHT22;10746;50.178;8.186;2023-03-04T05:12:48;0.30;99.90
21176;DHT22;10746;50.178;8.186;2023-03-04T05:15:15;0.30;99.90
21176;DHT22;10746;50.178;8.186;2023-03-04T05:17:42;0.30;99.90
21176;DHT22;10746;50.178;8.186;2023-03-04T05:20:11;0.30;99.90
21176;DHT22;10746;50.178;8.186;2023-03-04T05:22:37;0.30;99.90
21176;DHT22;10746;50.178;8.186;2023-03-04T05:25:05;0.30;99.90
21176;DHT22;10746;50.178;8.186;2023-03-04T05:27:32;0.30;99.90
21176;DHT22;10746;50.178;8.186;2023-03-04T05:29:59;0.30;99.90
21176;DHT22;10746;50.178;8.186;2023-03-04T05:32:26;0.30;99.90
21176;DHT22;10746;50.178;8.186;2023-03-04T05:34:53;0.30;99.90
21176;DHT22;10746;50.178;8.186;2023-03-04T05:37:21;0.30;99.90
21176;DHT22;10746;50.178;8.186;2023-03-04T05:39:48;0.30;99.90
21176;DHT22;10746;50.178;8.186;2023-03-04T05:42:14;0.40;99.90
21176;DHT22;10746;50.178;8.186;2023-03-04T05:44:41;0.30;99.90
21176;DHT22;10746;50.178;8.186;2023-03-04T05:47:08;0.30;99.90
21176;DHT22;10746;50.178;8.186;2023-03-04T05:49:35;0.30;99.90
21176;DHT22;10746;50.178;8.186;2023-03-04T05:52:01;0.40;99.90
21176;DHT22;10746;50.178;8.186;2023-03-04T05:54:29;0.30;99.90
21176;DHT22;10746;50.178;8.186;2023-03-04T05:56:56;0.30;99.90
21176;DHT22;10746;50.178;8.186;2023-03-04T05:59:23;0.30;99.90
21176;DHT22;10746;50.178;8.186;2023-03-04T06:01:50;0.40;99.90
21176;DHT22;10746;50.178;8.186;2023-03-04T06:04:16;0.40;99.90
21176;DHT22;10746;50.178;8.186;2023-03-04T06:06:43;0.40;99.90
21176;DHT22;10746;50.178;8.186;2023-03-04T06:09:11;0.40;99.90
21176;DHT22;10746;50.178;8.186;2023-03-04T06:11:40;0.40;99.90
21176;DHT22;10746;50.178;8.186;2023-03-04T06:14:07;0.40;99.90
21176;DHT22;10746;50.178;8.186;2023-03-04T06:16:33;0.40;99.90
21176;DHT22;10746;50.178;8.186;2023-03-04T06:19:00;0.40;99.90
21176;DHT22;10746;50.178;8.186;2023-03-04T06:21:27;0.40;99.90
21176;DHT22;10746;50.178;8.186;2023-03-04T06:23:54;0.50;99.90
21176;DHT22;10746;50.178;8.186;2023-03-04T06:26:21;0.50;99.90
21176;DHT22;10746;50.178;8.186;2023-03-04T06:28:49;0.50;99.90
21176;DHT22;10746;50.178;8.186;2023-03-04T06:31:15;0.50;99.90
21176;DHT22;10746;50.178;8.186;2023-03-04T06:33:42;0.50;99.90
21176;DHT22;10746;50.178;8.186;2023-03-04T06:36:10;0.50;99.90
21176;DHT22;10746;50.178;8.186;2023-03-04T06:38:37;0.50;99.90
21176;DHT22;10746;50.178;8.186;2023-03-04T06:41:08;0.50;99.90
21176;DHT22;10746;50.178;8.186;2023-03-04T06:43:35;0.60;99.90
21176;DHT22;10746;50.178;8.186;2023-03-04T06:46:04;0.60;99.90
21176;DHT22;10746;50.178;8.186;2023-03-04T06:48:30;0.60;99.90
21176;DHT22;10746;50.178;8.186;2023-03-04T06:50:57;0.60;99.90
21176;DHT22;10746;50.178;8.186;2023-03-04T06:53:24;0.60;99.90
21176;DHT22;10746;50.178;8.186;2023-03-04T06:55:51;0.60;99.90
21176;DHT22;10746;50.178;8.186;2023-03-04T06:58:18;0.60;99.90
21176;DHT22;10746;50.178;8.186;2023-03-04T07:00:44;0.60;99.90
21176;DHT22;10746;50.178;8.186;2023-03-04T07:03:13;0.60;99.90
21176;DHT22;10746;50.178;8.186;2023-03-04T07:05:39;0.70;99.90
21176;DHT22;10746;50.178;8.186;2023-03-04T07:08:07;0.70;99.90
21176;DHT22;10746;50.178;8.186;2023-03-04T07:10:34;0.70;99.90
21176;DHT22;10746;50.178;8.186;2023-03-04T07:13:01;0.80;99.90
21176;DHT22;10746;50.178;8.186;2023-03-04T07:15:28;0.70;99.90
21176;DHT22;10746;50.178;8.186;2023-03-04T07:17:55;0.70;99.90
21176;DHT22;10746;50.178;8.186;2023-03-04T07:20:23;0.80;99.90
21176;DHT22;10746;50.178;8.186;2023-03-04T07:22:50;0.80;99.90
21176;DHT22;10746;50.178;8.186;2023-03-04T07:25:17;0.80;99.90
21176;DHT22;10746;50.178;8.186;2023-03-04T07:27:43;0.90;99.90
21176;DHT22;10746;50.178;8.186;2023-03-04T07:30:11;0.90;99.90
21176;DHT22;10746;50.178;8.186;2023-03-04T07:32:38;0.90;99.90
21176;DHT22;10746;50.178;8.186;2023-03-04T07:35:06;0.90;99.90
21176;DHT22;10746;50.178;8.186;2023-03-04T07:37:34;0.90;99.90
21176;DHT22;10746;50.178;8.186;2023-03-04T07:40:01;1.00;99.90
21176;DHT22;10746;50.178;8.186;2023-03-04T07:42:28;1.00;99.90
21176;DHT22;10746;50.178;8.186;2023-03-04T07:44:54;1.00;99.90
21176;DHT22;10746;50.178;8.186;2023-03-04T07:47:21;1.00;99.90
21176;DHT22;10746;50.178;8.186;2023-03-04T07:49:48;1.00;99.90
21176;DHT22;10746;50.178;8.186;2023-03-04T07:52:14;1.00;99.90
21176;DHT22;10746;50.178;8.186;2023-03-04T07:54:42;1.10;99.90
21176;DHT22;10746;50.178;8.186;2023-03-04T07:57:09;1.00;99.90
21176;DHT22;10746;50.178;8.186;2023-03-04T07:59:36;1.00;99.90
21176;DHT22;10746;50.178;8.186;2023-03-04T08:02:04;1.10;99.90
21176;DHT22;10746;50.178;8.186;2023-03-04T08:04:30;1.10;99.90
21176;DHT22;10746;50.178;8.186;2023-03-04T08:06:57;1.10;99.90
21176;DHT22;10746;50.178;8.186;2023-03-04T08:09:24;1.00;99.90
21176;DHT22;10746;50.178;8.186;2023-03-04T08:11:52;1.10;99.90
21176;DHT22;10746;50.178;8.186;2023-03-04T08:14:19;1.10;99.90
21176;DHT22;10746;50.178;8.186;2023-03-04T08:16:46;1.10;99.90
21176;DHT22;10746;50.178;8.186;2023-03-04T08:19:13;1.10;99.90
21176;DHT22;10746;50.178;8.186;2023-03-04T08:21:40;1.10;99.90
21176;DHT22;10746;50.178;8.186;2023-03-04T08:24:06;1.10;99.90
21176;DHT22;10746;50.178;8.186;2023-03-04T08:26:35;1.20;99.90
21176;DHT22;10746;50.178;8.186;2023-03-04T08:29:08;1.20;99.90
21176;DHT22;10746;50.178;8.186;2023-03-04T08:31:35;1.20;99.90
21176;DHT22;10746;50.178;8.186;2023-03-04T08:34:02;1.20;99.90
21176;DHT22;10746;50.178;8.186;2023-03-04T08:36:30;1.20;99.90
21176;DHT22;10746;50.178;8.186;2023-03-04T08:38:56;1.30;99.90
21176;DHT22;10746;50.178;8.186;2023-03-04T08:41:23;1.30;99.90
21176;DHT22;10746;50.178;8.186;2023-03-04T08:43:51;1.30;99.90
21176;DHT22;10746;50.178;8.186;2023-03-04T08:46:20;1.30;99.90
21176;DHT22;10746;50.178;8.186;2023-03-04T08:48:46;1.40;99.90
21176;DHT22;10746;50.178;8.186;2023-03-04T08:51:14;1.40;99.90
21176;DHT22;10746;50.178;8.186;2023-03-04T08:53:41;1.40;99.90
21176;DHT22;10746;50.178;8.186;2023-03-04T08:56:09;1.50;99.90
21176;DHT22;10746;50.178;8.186;2023-03-04T08:58:35;1.50;99.90
21176;DHT22;10746;50.178;8.186;2023-03-04T09:01:03;1.50;99.90
21176;DHT22;10746;50.178;8.186;2023-03-04T09:03:31;1.50;99.90
21176;DHT22;10746;50.178;8.186;2023-03-04T09:06:01;1.50;99.90
21176;DHT22;10746;50.178;8.186;2023-03-04T09:08:28;1.50;99.90
21176;DHT22;10746;50.178;8.186;2023-03-04T09:10:55;1.60;99.90
21176;DHT22;10746;50.178;8.186;2023-03-04T09:13:23;1.70;99.90
21176;DHT22;10746;50.178;8.186;2023-03-04T09:15:51;1.70;99.90
21176;DHT22;10746;50.178;8.186;2023-03-04T09:18:19;1.70;99.90
21176;DHT22;10746;50.178;8.186;2023-03-04T09:20:48;1.70;99.90
21176;DHT22;10746;50.178;8.186;2023-03-04T09:23:15;1.70;99.90
21176;DHT22;10746;50.178;8.186;2023-03-04T09:25:43;1.70;99.90
21176;DHT22;10746;50.178;8.186;2023-03-04T09:28:11;1.70;99.90
21176;DHT22;10746;50.178;8.186;2023-03-04T09:30:38;1.70;99.90
21176;DHT22;10746;50.178;8.186;2023-03-04T09:33:05;1.80;99.90
21176;DHT22;10746;50.178;8.186;2023-03-04T09:35:32;1.80;99.90
21176;DHT22;10746;50.178;8.186;2023-03-04T09:38:00;1.80;99.90
21176;DHT22;10746;50.178;8.186;2023-03-04T09:40:29;1.80;99.90
21176;DHT22;10746;50.178;8.186;2023-03-04T09:42:59;1.80;99.90
21176;DHT22;10746;50.178;8.186;2023-03-04T09:45:32;1.90;99.90
21176;DHT22;10746;50.178;8.186;2023-03-04T09:48:01;1.90;99.90
21176;DHT22;10746;50.178;8.186;2023-03-04T09:50:31;2.00;99.90
21176;DHT22;10746;50.178;8.186;2023-03-04T09:53:06;2.00;99.90
21176;DHT22;10746;50.178;8.186;2023-03-04T09:55:41;2.00;99.90
21176;DHT22;10746;50.178;8.186;2023-03-04T09:58:34;2.00;99.90
21176;DHT22;10746;50.178;8.186;2023-03-04T10:01:06;2.00;99.90
21176;DHT22;10746;50.178;8.186;2023-03-04T10:03:41;2.00;99.90
21176;DHT22;10746;50.178;8.186;2023-03-04T10:06:12;2.10;99.90
21176;DHT22;10746;50.178;8.186;2023-03-04T10:08:49;2.10;99.90
21176;DHT22;10746;50.178;8.186;2023-03-04T10:11:22;2.20;99.90
21176;DHT22;10746;50.178;8.186;2023-03-04T10:14:10;2.20;99.90
21176;DHT22;10746;50.178;8.186;2023-03-04T10:16:44;2.20;99.90
21176;DHT22;10746;50.178;8.186;2023-03-04T10:19:33;2.30;99.90
21176;DHT22;10746;50.178;8.186;2023-03-04T10:22:14;2.30;99.90
21176;DHT22;10746;50.178;8.186;2023-03-04T10:24:43;2.30;99.90
21176;DHT22;10746;50.178;8.186;2023-03-04T10:27:15;2.30;99.90
21176;DHT22;10746;50.178;8.186;2023-03-04T10:29:42;2.40;99.90
21176;DHT22;10746;50.178;8.186;2023-03-04T10:32:13;2.50;99.90
21176;DHT22;10746;50.178;8.186;2023-03-04T10:34:41;2.50;99.90
21176;DHT22;10746;50.178;8.186;2023-03-04T10:37:08;2.40;99.90
21176;DHT22;10746;50.178;8.186;2023-03-04T10:39:38;2.40;99.90
21176;DHT22;10746;50.178;8.186;2023-03-04T10:42:22;2.50;99.90
21176;DHT22;10746;50.178;8.186;2023-03-04T10:44:53;2.50;99.90
21176;DHT22;10746;50.178;8.186;2023-03-04T10:47:23;2.50;99.90
21176;DHT22;10746;50.178;8.186;2023-03-04T10:49:52;2.50;99.90
21176;DHT22;10746;50.178;8.186;2023-03-04T10:52:27;2.40;99.90
21176;DHT22;10746;50.178;8.186;2023-03-04T10:54:56;2.50;99.90
21176;DHT22;10746;50.178;8.186;2023-03-04T10:57:31;2.50;99.90
21176;DHT22;10746;50.178;8.186;2023-03-04T11:00:00;2.50;99.90
21176;DHT22;10746;50.178;8.186;2023-03-04T11:02:27;2.60;99.90
21176;DHT22;10746;50.178;8.186;2023-03-04T11:05:03;2.70;99.90
21176;DHT22;10746;50.178;8.186;2023-03-04T11:07:30;2.70;99.90
21176;DHT22;10746;50.178;8.186;2023-03-04T11:10:08;2.60;99.90
21176;DHT22;10746;50.178;8.186;2023-03-04T11:12:36;2.60;99.90
21176;DHT22;10746;50.178;8.186;2023-03-04T11:15:17;2.60;99.90
21176;DHT22;10746;50.178;8.186;2023-03-04T11:17:47;2.70;99.90
21176;DHT22;10746;50.178;8.186;2023-03-04T11:20:22;2.70;99.90
21176;DHT22;10746;50.178;8.186;2023-03-04T11:22:51;2.70;99.90
21176;DHT22;10746;50.178;8.186;2023-03-04T11:25:24;2.80;99.90
21176;DHT22;10746;50.178;8.186;2023-03-04T11:27:56;2.70;99.90
21176;DHT22;10746;50.178;8.186;2023-03-04T11:30:37;2.70;99.90
21176;DHT22;10746;50.178;8.186;2023-03-04T11:33:13;2.70;99.90
21176;DHT22;10746;50.178;8.186;2023-03-04T11:35:52;2.70;99.90
21176;DHT22;10746;50.178;8.186;2023-03-04T11:38:22;2.70;99.90
21176;DHT22;10746;50.178;8.186;2023-03-04T11:40:53;2.70;99.90
21176;DHT22;10746;50.178;8.186;2023-03-04T11:43:27;2.70;99.90
21176;DHT22;10746;50.178;8.186;2023-03-04T11:49:00;2.90;99.90
21176;DHT22;10746;50.178;8.186;2023-03-04T11:51:35;2.90;99.90
21176;DHT22;10746;50.178;8.186;2023-03-04T11:54:15;3.00;99.90
21176;DHT22;10746;50.178;8.186;2023-03-04T11:56:44;3.00;99.90
21176;DHT22;10746;50.178;8.186;2023-03-04T11:59:29;3.10;99.90
21176;DHT22;10746;50.178;8.186;2023-03-04T12:02:11;3.20;99.90
21176;DHT22;10746;50.178;8.186;2023-03-04T12:05:19;3.30;99.90
21176;DHT22;10746;50.178;8.186;2023-03-04T12:07:58;3.30;99.90
21176;DHT22;10746;50.178;8.186;2023-03-04T12:10:31;3.30;99.90
21176;DHT22;10746;50.178;8.186;2023-03-04T12:13:29;3.40;99.90
21176;DHT22;10746;50.178;8.186;2023-03-04T12:16:13;3.70;99.90
21176;DHT22;10746;50.178;8.186;2023-03-04T12:18:58;3.90;99.90
21176;DHT22;10746;50.178;8.186;2023-03-04T12:21:45;4.10;99.90
21176;DHT22;10746;50.178;8.186;2023-03-04T12:24:30;4.20;99.90
21176;DHT22;10746;50.178;8.186;2023-03-04T12:27:02;4.30;99.90
21176;DHT22;10746;50.178;8.186;2023-03-04T12:29:45;4.30;99.90
21176;DHT22;10746;50.178;8.186;2023-03-04T12:32:20;4.30;99.90
21176;DHT22;10746;50.178;8.186;2023-03-04T12:35:29;4.30;99.90
21176;DHT22;10746;50.178;8.186;2023-03-04T12:38:06;4.30;99.90
21176;DHT22;10746;50.178;8.186;2023-03-04T12:40:39;4.20;99.90
21176;DHT22;10746;50.178;8.186;2023-03-04T12:43:28;4.10;99.90
21176;DHT22;10746;50.178;8.186;2023-03-04T12:46:04;4.00;99.90
21176;DHT22;10746;50.178;8.186;2023-03-04T12:48:36;4.00;99.90
21176;DHT22;10746;50.178;8.186;2023-03-04T12:51:19;3.90;99.90
21176;DHT22;10746;50.178;8.186;2023-03-04T12:53:55;3.90;99.90
21176;DHT22;10746;50.178;8.186;2023-03-04T12:56:31;3.90;99.90
21176;DHT22;10746;50.178;8.186;2023-03-04T12:59:01;3.90;99.90
21176;DHT22;10746;50.178;8.186;2023-03-04T13:01:33;3.90;99.90
21176;DHT22;10746;50.178;8.186;2023-03-04T13:04:08;4.00;99.90
21176;DHT22;10746;50.178;8.186;2023-03-04T13:06:44;4.10;99.90
21176;DHT22;10746;50.178;8.186;2023-03-04T13:09:20;4.00;99.90
21176;DHT22;10746;50.178;8.186;2023-03-04T13:11:53;4.00;99.90
21176;DHT22;10746;50.178;8.186;2023-03-04T13:14:26;4.10;99.90
21176;DHT22;10746;50.178;8.186;2023-03-04T13:16:54;4.10;99.90
21176;DHT22;10746;50.178;8.186;2023-03-04T13:19:42;4.20;99.90
21176;DHT22;10746;50.178;8.186;2023-03-04T13:22:44;4.20;99.90
21176;DHT22;10746;50.178;8.186;2023-03-04T13:25:33;4.10;99.90
21176;DHT22;10746;50.178;8.186;2023-03-04T13:28:18;4.00;99.90
21176;DHT22;10746;50.178;8.186;2023-03-04T13:31:23;4.10;99.90
21176;DHT22;10746;50.178;8.186;2023-03-04T13:33:57;4.10;99.90
21176;DHT22;10746;50.178;8.186;2023-03-04T13:39:31;4.10;99.90
21176;DHT22;10746;50.178;8.186;2023-03-04T13:41:58;4.10;99.90
21176;DHT22;10746;50.178;8.186;2023-03-04T13:44:59;4.10;99.90
21176;DHT22;10746;50.178;8.186;2023-03-04T13:47:46;4.10;99.90
21176;DHT22;10746;50.178;8.186;2023-03-04T13:50:35;4.10;99.90
21176;DHT22;10746;50.178;8.186;2023-03-04T13:59:20;4.10;99.90
21176;DHT22;10746;50.178;8.186;2023-03-04T14:01:51;4.20;99.90
21176;DHT22;10746;50.178;8.186;2023-03-04T14:04:21;4.20;99.90
21176;DHT22;10746;50.178;8.186;2023-03-04T14:06:50;4.20;99.90
21176;DHT22;10746;50.178;8.186;2023-03-04T14:09:22;4.20;99.90
21176;DHT22;10746;50.178;8.186;2023-03-04T14:11:50;4.20;99.90
21176;DHT22;10746;50.178;8.186;2023-03-04T14:14:20;4.20;99.90
21176;DHT22;10746;50.178;8.186;2023-03-04T14:16:49;4.20;99.90
21176;DHT22;10746;50.178;8.186;2023-03-04T14:19:22;4.30;99.90
21176;DHT22;10746;50.178;8.186;2023-03-04T14:21:49;4.20;99.90
21176;DHT22;10746;50.178;8.186;2023-03-04T14:24:18;4.30;99.90
21176;DHT22;10746;50.178;8.186;2023-03-04T14:26:47;4.20;99.90
21176;DHT22;10746;50.178;8.186;2023-03-04T14:29:23;4.10;99.90
21176;DHT22;10746;50.178;8.186;2023-03-04T14:31:51;4.00;99.90
21176;DHT22;10746;50.178;8.186;2023-03-04T14:34:23;3.90;99.90
21176;DHT22;10746;50.178;8.186;2023-03-04T14:36:51;3.90;99.90
21176;DHT22;10746;50.178;8.186;2023-03-04T14:39:20;3.80;99.90
21176;DHT22;10746;50.178;8.186;2023-03-04T14:41:51;3.90;99.90
21176;DHT22;10746;50.178;8.186;2023-03-04T14:44:28;3.90;99.90
21176;DHT22;10746;50.178;8.186;2023-03-04T14:47:06;3.90;99.90
21176;DHT22;10746;50.178;8.186;2023-03-04T14:49:36;3.90;99.90
21176;DHT22;10746;50.178;8.186;2023-03-04T14:52:03;3.90;99.90
21176;DHT22;10746;50.178;8.186;2023-03-04T14:54:33;4.00;99.90
21176;DHT22;10746;50.178;8.186;2023-03-04T14:57:21;3.90;99.90
21176;DHT22;10746;50.178;8.186;2023-03-04T14:59:49;3.90;99.90
21176;DHT22;10746;50.178;8.186;2023-03-04T15:02:23;3.80;99.90
21176;DHT22;10746;50.178;8.186;2023-03-04T15:04:57;3.80;99.90
21176;DHT22;10746;50.178;8.186;2023-03-04T15:07:29;3.90;99.90
21176;DHT22;10746;50.178;8.186;2023-03-04T15:09:57;3.90;99.90
21176;DHT22;10746;50.178;8.186;2023-03-04T15:12:28;3.90;99.90
21176;DHT22;10746;50.178;8.186;2023-03-04T15:14:57;3.90;99.90
21176;DHT22;10746;50.178;8.186;2023-03-04T15:17:28;4.00;99.90
21176;DHT22;10746;50.178;8.186;2023-03-04T15:20:01;4.00;99.90
21176;DHT22;10746;50.178;8.186;2023-03-04T15:22:28;4.00;99.90
21176;DHT22;10746;50.178;8.186;2023-03-04T15:24:55;4.00;99.90
21176;DHT22;10746;50.178;8.186;2023-03-04T15:27:23;4.00;99.90
21176;DHT22;10746;50.178;8.186;2023-03-04T15:29:53;3.90;99.90
21176;DHT22;10746;50.178;8.186;2023-03-04T15:32:23;3.90;99.90
21176;DHT22;10746;50.178;8.186;2023-03-04T15:34:50;3.90;99.90
21176;DHT22;10746;50.178;8.186;2023-03-04T15:37:19;3.90;99.90
21176;DHT22;10746;50.178;8.186;2023-03-04T15:39:47;3.80;99.90
21176;DHT22;10746;50.178;8.186;2023-03-04T15:42:14;3.90;99.90
21176;DHT22;10746;50.178;8.186;2023-03-04T15:44:41;3.90;99.90
21176;DHT22;10746;50.178;8.186;2023-03-04T15:47:10;3.90;99.90
21176;DHT22;10746;50.178;8.186;2023-03-04T15:49:38;3.90;99.90
21176;DHT22;10746;50.178;8.186;2023-03-04T15:52:05;3.90;99.90
21176;DHT22;10746;50.178;8.186;2023-03-04T15:54:32;3.90;99.90
21176;DHT22;10746;50.178;8.186;2023-03-04T15:57:07;3.90;99.90
21176;DHT22;10746;50.178;8.186;2023-03-04T15:59:34;3.80;99.90
21176;DHT22;10746;50.178;8.186;2023-03-04T16:02:01;3.80;99.90
21176;DHT22;10746;50.178;8.186;2023-03-04T16:04:29;3.80;99.90
21176;DHT22;10746;50.178;8.186;2023-03-04T16:06:56;3.80;99.90
21176;DHT22;10746;50.178;8.186;2023-03-04T16:09:25;3.80;99.90
21176;DHT22;10746;50.178;8.186;2023-03-04T16:11:52;3.80;99.90
21176;DHT22;10746;50.178;8.186;2023-03-04T16:14:20;3.80;99.90